createdAt,value
2022-08-11T00:00:46.759Z,1.80
2022-08-11T00:01:46.869Z,1.80
2022-08-11T00:02:46.823Z,1.70
2022-08-11T00:03:46.719Z,1.60
2022-08-11T00:04:46.723Z,1.60
2022-08-11T00:05:46.727Z,1.70
2022-08-11T00:06:46.749Z,1.60
2022-08-11T00:07:46.905Z,1.80
2022-08-11T00:08:46.668Z,1.70
2022-08-11T00:09:46.665Z,1.70
2022-08-11T00:10:46.649Z,1.70
2022-08-11T00:11:46.689Z,1.60
2022-08-11T00:12:46.632Z,1.90
2022-08-11T00:13:46.616Z,1.80
2022-08-11T00:14:46.732Z,2.10
2022-08-11T00:15:49.139Z,1.80
2022-08-11T00:16:46.583Z,1.80
2022-08-11T00:17:46.568Z,1.80
2022-08-11T00:18:46.543Z,2.00
2022-08-11T00:20:15.170Z,1.80
2022-08-11T00:20:47.576Z,1.80
2022-08-11T00:22:04.061Z,1.90
2022-08-11T00:22:47.652Z,1.90
2022-08-11T00:23:46.516Z,1.90
2022-08-11T00:24:53.423Z,1.90
2022-08-11T00:25:47.459Z,1.80
2022-08-11T00:26:46.585Z,1.80
2022-08-11T00:27:46.486Z,1.80
2022-08-11T00:28:46.537Z,1.80
2022-08-11T00:29:51.814Z,2.00
2022-08-11T00:30:47.404Z,2.00
2022-08-11T00:31:50.387Z,1.90
2022-08-11T00:32:46.378Z,1.60
2022-08-11T00:33:46.363Z,1.80
2022-08-11T00:34:46.334Z,1.60
2022-08-11T00:35:55.152Z,1.90
2022-08-11T00:36:47.332Z,1.70
2022-08-11T00:37:46.327Z,2.10
2022-08-11T00:38:46.361Z,1.80
2022-08-11T00:39:46.334Z,1.70
2022-08-11T00:40:46.263Z,1.70
2022-08-11T00:41:46.251Z,1.80
2022-08-11T00:42:47.290Z,1.70
2022-08-11T00:43:46.338Z,1.70
2022-08-11T00:44:46.210Z,1.90
2022-08-11T00:45:46.199Z,1.80
2022-08-11T00:46:46.206Z,1.90
2022-08-11T00:47:46.318Z,1.80
2022-08-11T00:48:46.192Z,1.80
2022-08-11T00:49:46.140Z,1.80
2022-08-11T00:50:46.181Z,1.90
2022-08-11T00:52:02.228Z,2.00
2022-08-11T00:52:47.127Z,2.20
2022-08-11T00:53:46.775Z,1.70
2022-08-11T00:54:46.098Z,1.90
2022-08-11T00:55:47.226Z,1.80
2022-08-11T00:56:47.059Z,2.10
2022-08-11T00:57:46.048Z,2.20
2022-08-11T00:58:50.892Z,2.10
2022-08-11T00:59:47.021Z,1.90
2022-08-11T01:00:46.156Z,2.10
2022-08-11T01:01:45.990Z,2.10
2022-08-11T01:02:45.999Z,2.00
2022-08-11T01:03:46.026Z,1.80
2022-08-11T01:04:45.967Z,1.80
2022-08-11T01:05:46.977Z,2.10
2022-08-11T01:06:45.933Z,2.10
2022-08-11T01:08:02.614Z,1.80
2022-08-11T01:08:46.914Z,2.00
2022-08-11T01:09:45.907Z,2.10
2022-08-11T01:10:45.876Z,2.20
2022-08-11T01:11:55.135Z,2.10
2022-08-11T01:12:46.897Z,2.00
2022-08-11T01:13:45.905Z,1.90
2022-08-11T01:14:45.825Z,2.00
2022-08-11T01:15:56.985Z,2.10
2022-08-11T01:16:46.828Z,1.80
2022-08-11T01:17:45.814Z,1.90
2022-08-11T01:18:45.787Z,1.90
2022-08-11T01:20:45.542Z,2.00
2022-08-11T01:20:49.566Z,1.90
2022-08-11T01:21:45.803Z,2.20
2022-08-11T01:22:45.752Z,2.00
2022-08-11T01:23:45.723Z,1.90
2022-08-11T01:24:45.703Z,1.80
2022-08-11T01:25:56.452Z,2.00
2022-08-11T01:26:46.697Z,2.20
2022-08-11T01:27:45.730Z,2.00
2022-08-11T01:28:45.671Z,2.10
2022-08-11T01:29:49.075Z,1.80
2022-08-11T01:30:45.663Z,1.90
2022-08-11T01:31:45.698Z,1.70
2022-08-11T01:32:45.620Z,2.10
2022-08-11T01:33:45.603Z,2.00
2022-08-11T01:34:45.571Z,2.20
2022-08-11T01:35:45.541Z,1.90
2022-08-11T01:36:45.545Z,1.90
2022-08-11T01:37:46.532Z,1.90
2022-08-11T01:38:45.551Z,2.20
2022-08-11T01:39:45.527Z,1.90
2022-08-11T01:40:45.528Z,2.00
2022-08-11T01:41:45.491Z,1.70
2022-08-11T01:42:45.512Z,2.00
2022-08-11T01:43:45.479Z,1.90
2022-08-11T01:44:45.429Z,2.10
2022-08-11T01:45:45.419Z,1.90
2022-08-11T01:46:45.412Z,2.10
2022-08-11T01:47:53.286Z,2.10
2022-08-11T01:48:46.401Z,2.00
2022-08-11T01:50:08.094Z,1.90
2022-08-11T01:50:46.406Z,2.00
2022-08-11T01:51:45.448Z,2.30
2022-08-11T01:52:45.450Z,1.90
2022-08-11T01:53:45.387Z,1.80
2022-08-11T01:54:45.324Z,2.00
2022-08-11T01:55:45.313Z,1.90
2022-08-11T01:56:45.297Z,2.00
2022-08-11T01:57:45.283Z,2.00
2022-08-11T01:58:45.305Z,1.90
2022-08-11T01:59:45.249Z,1.80
2022-08-11T02:00:45.368Z,1.90
2022-08-11T02:01:45.279Z,1.90
2022-08-11T02:02:45.196Z,1.90
2022-08-11T02:03:45.209Z,1.90
2022-08-11T02:04:45.208Z,2.00
2022-08-11T02:05:45.171Z,1.90
2022-08-11T02:06:45.187Z,1.90
2022-08-11T02:07:45.133Z,2.20
2022-08-11T02:08:50.785Z,2.00
2022-08-11T02:09:49.733Z,2.00
2022-08-11T02:10:50.427Z,2.10
2022-08-11T02:11:45.108Z,2.10
2022-08-11T02:12:49.911Z,2.00
2022-08-11T02:13:46.147Z,2.10
2022-08-11T02:14:53.583Z,2.20
2022-08-11T02:15:46.069Z,1.90
2022-08-11T02:16:45.048Z,2.10
2022-08-11T02:17:45.023Z,2.00
2022-08-11T02:18:45.047Z,2.00
2022-08-11T02:19:45.386Z,1.80
2022-08-11T02:20:44.988Z,2.20
2022-08-11T02:21:45.032Z,1.80
2022-08-11T02:22:44.942Z,2.00
2022-08-11T02:24:07.223Z,2.00
2022-08-11T02:24:45.922Z,1.70
2022-08-11T02:25:44.938Z,2.20
2022-08-11T02:26:44.903Z,2.20
2022-08-11T02:27:44.880Z,2.00
2022-08-11T02:28:46.818Z,2.10
2022-08-11T02:29:44.865Z,2.00
2022-08-11T02:30:44.852Z,2.10
2022-08-11T02:32:23.842Z,2.10
2022-08-11T02:32:45.860Z,2.00
2022-08-11T02:33:44.804Z,2.30
2022-08-11T02:34:44.834Z,2.20
2022-08-11T02:35:45.816Z,2.80
2022-08-11T02:36:44.758Z,2.30
2022-08-11T02:37:44.748Z,2.00
2022-08-11T02:38:44.735Z,2.20
2022-08-11T02:39:44.750Z,2.20
2022-08-11T02:40:44.749Z,2.10
2022-08-11T02:41:44.712Z,2.00
2022-08-11T02:42:44.803Z,2.20
2022-08-11T02:43:48.070Z,2.00
2022-08-11T02:44:45.660Z,2.10
2022-08-11T02:45:44.639Z,2.20
2022-08-11T02:46:45.357Z,2.20
2022-08-11T02:47:44.732Z,2.10
2022-08-11T02:48:44.656Z,1.90
2022-08-11T02:49:44.586Z,2.00
2022-08-11T02:50:44.583Z,2.10
2022-08-11T02:51:44.637Z,2.10
2022-08-11T02:52:44.555Z,1.80
2022-08-11T02:53:44.559Z,2.30
2022-08-11T02:54:45.540Z,2.00
2022-08-11T02:55:57.195Z,2.00
2022-08-11T02:56:45.627Z,2.20
2022-08-11T02:57:44.476Z,2.30
2022-08-11T02:58:44.485Z,2.10
2022-08-11T02:59:44.474Z,2.10
2022-08-11T03:00:44.521Z,2.10
2022-08-11T03:01:44.515Z,1.90
2022-08-11T03:02:45.154Z,2.10
2022-08-11T03:03:44.409Z,2.00
2022-08-11T03:04:44.443Z,2.10
2022-08-11T03:05:44.403Z,2.00
2022-08-11T03:06:44.403Z,2.30
2022-08-11T03:07:44.365Z,2.20
2022-08-11T03:08:44.370Z,2.10
2022-08-11T03:09:44.326Z,2.00
2022-08-11T03:10:44.332Z,2.10
2022-08-11T03:11:44.300Z,2.20
2022-08-11T03:12:44.373Z,2.10
2022-08-11T03:13:44.300Z,1.90
2022-08-11T03:14:44.283Z,2.20
2022-08-11T03:15:44.620Z,2.10
2022-08-11T03:16:45.014Z,2.10
2022-08-11T03:17:44.222Z,2.00
2022-08-11T03:18:44.274Z,2.20
2022-08-11T03:19:44.212Z,2.00
2022-08-11T03:20:44.273Z,2.00
2022-08-11T03:22:01.159Z,2.40
2022-08-11T03:22:45.208Z,2.20
2022-08-11T03:23:44.150Z,2.10
2022-08-11T03:24:44.155Z,2.30
2022-08-11T03:25:44.139Z,2.00
2022-08-11T03:26:44.217Z,2.00
2022-08-11T03:27:44.139Z,2.10
2022-08-11T03:28:44.088Z,2.10
2022-08-11T03:29:44.153Z,2.20
2022-08-11T03:30:44.077Z,1.90
2022-08-11T03:31:44.633Z,2.10
2022-08-11T03:32:44.046Z,2.10
2022-08-11T03:33:44.029Z,2.20
2022-08-11T03:34:44.038Z,2.00
2022-08-11T03:35:44.013Z,2.10
2022-08-11T03:37:06.829Z,2.10
2022-08-11T03:37:45.033Z,2.20
2022-08-11T03:38:44.031Z,2.40
2022-08-11T03:39:51.104Z,2.10
2022-08-11T03:40:45.020Z,2.40
2022-08-11T03:42:02.854Z,2.10
2022-08-11T03:42:44.927Z,2.10
2022-08-11T03:43:45.698Z,2.20
2022-08-11T03:44:44.928Z,2.10
2022-08-11T03:45:43.877Z,2.20
2022-08-11T03:46:43.906Z,2.40
2022-08-11T03:47:52.284Z,2.50
2022-08-11T03:48:44.953Z,2.10
2022-08-11T03:49:43.826Z,2.20
2022-08-11T03:50:43.845Z,2.10
2022-08-11T03:51:44.813Z,2.00
2022-08-11T03:52:44.804Z,2.20
2022-08-11T03:53:43.824Z,2.30
2022-08-11T03:54:43.809Z,2.10
2022-08-11T03:55:43.759Z,2.20
2022-08-11T03:56:43.789Z,2.10
2022-08-11T03:57:43.742Z,2.20
2022-08-11T03:58:43.864Z,1.90
2022-08-11T03:59:43.704Z,2.10
2022-08-11T04:00:43.715Z,2.10
2022-08-11T04:01:43.762Z,2.10
2022-08-11T04:02:43.674Z,2.20
2022-08-11T04:03:43.718Z,2.40
2022-08-11T04:04:45.319Z,2.20
2022-08-11T04:05:44.634Z,2.40
2022-08-11T04:06:43.695Z,2.00
2022-08-11T04:07:43.615Z,2.20
2022-08-11T04:08:43.622Z,2.40
2022-08-11T04:09:43.605Z,2.60
2022-08-11T04:10:43.597Z,2.40
2022-08-11T04:11:43.570Z,2.40
2022-08-11T04:12:47.597Z,2.20
2022-08-11T04:13:43.561Z,2.10
2022-08-11T04:14:43.565Z,1.90
2022-08-11T04:15:43.565Z,2.40
2022-08-11T04:16:43.570Z,2.40
2022-08-11T04:17:43.515Z,2.30
2022-08-11T04:18:43.479Z,2.30
2022-08-11T04:19:43.465Z,2.20
2022-08-11T04:20:43.477Z,2.40
2022-08-11T04:21:43.556Z,2.40
2022-08-11T04:22:43.420Z,2.60
2022-08-11T04:24:13.239Z,2.40
2022-08-11T04:24:49.741Z,2.30
2022-08-11T04:25:58.076Z,2.50
2022-08-11T04:26:44.399Z,2.50
2022-08-11T04:27:43.402Z,2.40
2022-08-11T04:28:49.860Z,2.20
2022-08-11T04:30:03.330Z,2.30
2022-08-11T04:30:44.319Z,2.10
2022-08-11T04:31:50.517Z,2.40
2022-08-11T04:32:44.307Z,2.50
2022-08-11T04:33:43.471Z,2.30
2022-08-11T04:34:43.284Z,2.30
2022-08-11T04:35:47.182Z,2.20
2022-08-11T04:36:44.275Z,2.20
2022-08-11T04:37:43.297Z,2.40
2022-08-11T04:38:43.239Z,2.50
2022-08-11T04:39:43.299Z,2.30
2022-08-11T04:40:43.198Z,2.00
2022-08-11T04:41:43.176Z,2.30
2022-08-11T04:42:43.185Z,2.50
2022-08-11T04:44:02.701Z,2.30
2022-08-11T04:44:44.147Z,2.30
2022-08-11T04:45:43.164Z,2.30
2022-08-11T04:46:43.133Z,2.50
2022-08-11T04:48:01.759Z,2.40
2022-08-11T04:48:44.139Z,2.40
2022-08-11T04:49:43.095Z,2.30
2022-08-11T04:50:43.192Z,2.40
2022-08-11T04:51:44.084Z,2.40
2022-08-11T04:52:43.265Z,2.30
2022-08-11T04:53:43.049Z,2.30
2022-08-11T04:54:43.013Z,2.30
2022-08-11T04:55:43.043Z,2.30
2022-08-11T04:56:46.892Z,2.40
2022-08-11T04:57:43.077Z,2.30
2022-08-11T04:58:42.980Z,2.20
2022-08-11T04:59:43.092Z,2.00
2022-08-11T05:00:42.941Z,2.20
2022-08-11T05:01:43.042Z,2.40
2022-08-11T05:02:42.974Z,2.00
2022-08-11T05:03:42.911Z,2.30
2022-08-11T05:04:42.901Z,2.20
2022-08-11T05:05:56.602Z,2.90
2022-08-11T05:06:43.906Z,2.60
2022-08-11T05:07:42.870Z,2.40
2022-08-11T05:08:42.840Z,2.50
2022-08-11T05:09:42.861Z,2.50
2022-08-11T05:10:43.262Z,2.40
2022-08-11T05:11:43.017Z,2.60
2022-08-11T05:12:42.790Z,2.30
2022-08-11T05:13:42.788Z,2.40
2022-08-11T05:14:42.804Z,2.10
2022-08-11T05:15:44.685Z,3.20
2022-08-11T05:16:42.737Z,2.40
2022-08-11T05:17:42.784Z,2.70
2022-08-11T05:18:42.708Z,2.60
2022-08-11T05:19:42.797Z,2.40
2022-08-11T05:20:42.701Z,2.20
2022-08-11T05:21:44.854Z,2.70
2022-08-11T05:22:42.659Z,3.00
2022-08-11T05:23:42.649Z,2.90
2022-08-11T05:24:42.658Z,2.90
2022-08-11T05:26:43.465Z,2.50
2022-08-11T05:26:49.237Z,2.70
2022-08-11T05:27:43.618Z,2.50
2022-08-11T05:28:42.598Z,2.70
2022-08-11T05:29:42.599Z,2.30
2022-08-11T05:30:42.559Z,2.40
2022-08-11T05:31:42.587Z,2.40
2022-08-11T05:32:42.536Z,2.80
2022-08-11T05:33:42.538Z,2.10
2022-08-11T05:34:42.528Z,2.50
2022-08-11T05:36:01.668Z,2.10
2022-08-11T05:36:43.589Z,2.50
2022-08-11T05:37:42.474Z,2.20
2022-08-11T05:38:42.475Z,2.30
2022-08-11T05:39:42.608Z,2.30
2022-08-11T05:40:42.465Z,2.40
2022-08-11T05:41:43.425Z,2.20
2022-08-11T05:42:42.653Z,2.20
2022-08-11T05:44:20.710Z,2.40
2022-08-11T05:44:43.465Z,2.50
2022-08-11T05:45:57.258Z,2.40
2022-08-11T05:46:43.415Z,2.90
2022-08-11T05:47:42.353Z,2.40
2022-08-11T05:48:42.352Z,2.60
2022-08-11T05:49:42.374Z,2.50
2022-08-11T05:50:42.322Z,2.30
2022-08-11T05:51:54.478Z,2.30
2022-08-11T05:52:43.449Z,2.40
2022-08-11T05:53:46.384Z,1.90
2022-08-11T05:54:42.287Z,2.40
2022-08-11T05:56:01.631Z,2.50
2022-08-11T05:56:43.231Z,2.40
2022-08-11T05:57:51.572Z,2.20
2022-08-11T05:58:43.308Z,2.50
2022-08-11T05:59:42.249Z,2.30
2022-08-11T06:00:42.174Z,2.30
2022-08-11T06:01:42.228Z,3.10
2022-08-11T06:02:42.189Z,3.70
2022-08-11T06:03:42.156Z,2.90
2022-08-11T06:04:43.152Z,2.70
2022-08-11T06:05:44.030Z,2.80
2022-08-11T06:06:45.412Z,2.50
2022-08-11T06:07:48.654Z,2.30
2022-08-11T06:08:43.112Z,2.50
2022-08-11T06:09:42.078Z,2.10
2022-08-11T06:10:42.050Z,2.30
2022-08-11T06:11:43.539Z,2.20
2022-08-11T06:12:42.091Z,2.10
2022-08-11T06:13:42.029Z,2.40
2022-08-11T06:14:42.026Z,2.40
2022-08-11T06:15:41.986Z,2.20
2022-08-11T06:16:42.016Z,2.50
2022-08-11T06:17:41.993Z,2.40
2022-08-11T06:18:41.961Z,2.30
2022-08-11T06:19:41.938Z,2.20
2022-08-11T06:20:41.964Z,2.20
2022-08-11T06:21:41.928Z,2.60
2022-08-11T06:22:41.915Z,2.20
2022-08-11T06:23:41.888Z,2.50
2022-08-11T06:24:41.874Z,2.50
2022-08-11T06:25:41.875Z,2.40
2022-08-11T06:27:01.623Z,2.00
2022-08-11T06:27:42.836Z,2.70
2022-08-11T06:28:41.823Z,2.10
2022-08-11T06:29:47.814Z,2.30
2022-08-11T06:30:42.938Z,2.60
2022-08-11T06:31:41.786Z,2.10
2022-08-11T06:32:41.868Z,2.30
2022-08-11T06:33:41.755Z,2.20
2022-08-11T06:34:41.798Z,2.50
2022-08-11T06:35:41.795Z,2.30
2022-08-11T06:36:41.762Z,2.10
2022-08-11T06:37:41.704Z,2.30
2022-08-11T06:38:41.683Z,2.30
2022-08-11T06:39:41.769Z,2.30
2022-08-11T06:40:41.673Z,2.50
2022-08-11T06:41:41.663Z,2.40
2022-08-11T06:42:41.656Z,2.20
2022-08-11T06:43:41.642Z,1.90
2022-08-11T06:44:42.698Z,2.60
2022-08-11T06:45:41.591Z,2.40
2022-08-11T06:46:41.635Z,2.20
2022-08-11T06:47:41.598Z,2.30
2022-08-11T06:48:41.562Z,2.20
2022-08-11T06:49:41.541Z,2.40
2022-08-11T06:50:41.531Z,2.30
2022-08-11T06:51:41.780Z,2.50
2022-08-11T06:52:41.646Z,2.30
2022-08-11T06:53:41.519Z,2.20
2022-08-11T06:54:41.581Z,2.30
2022-08-11T06:55:57.616Z,2.10
2022-08-11T06:56:42.464Z,2.40
2022-08-11T06:57:41.458Z,2.20
2022-08-11T06:58:41.430Z,2.50
2022-08-11T06:59:41.434Z,2.50
2022-08-11T07:00:41.525Z,3.00
2022-08-11T07:01:41.440Z,2.50
2022-08-11T07:02:41.635Z,2.30
2022-08-11T07:03:41.388Z,2.80
2022-08-11T07:04:41.385Z,2.60
2022-08-11T07:05:41.378Z,3.40
2022-08-11T07:06:50.606Z,2.70
2022-08-11T07:07:42.327Z,2.40
2022-08-11T07:08:42.126Z,2.80
2022-08-11T07:09:41.305Z,3.00
2022-08-11T07:10:41.295Z,2.60
2022-08-11T07:11:41.302Z,2.80
2022-08-11T07:12:41.266Z,3.00
2022-08-11T07:13:45.374Z,2.30
2022-08-11T07:14:41.255Z,2.40
2022-08-11T07:16:10.940Z,2.20
2022-08-11T07:16:42.232Z,3.10
2022-08-11T07:17:41.222Z,2.40
2022-08-11T07:18:41.186Z,2.40
2022-08-11T07:19:41.186Z,2.30
2022-08-11T07:20:41.153Z,2.30
2022-08-11T07:22:01.279Z,2.40
2022-08-11T07:22:42.132Z,2.50
2022-08-11T07:23:41.140Z,2.40
2022-08-11T07:25:02.096Z,2.60
2022-08-11T07:25:43.473Z,2.30
2022-08-11T07:26:41.083Z,2.40
2022-08-11T07:27:41.063Z,2.30
2022-08-11T07:28:41.073Z,2.10
2022-08-11T07:29:41.061Z,2.30
2022-08-11T07:30:41.020Z,2.20
2022-08-11T07:31:41.042Z,2.30
2022-08-11T07:32:41.023Z,2.20
2022-08-11T07:34:07.984Z,2.10
2022-08-11T07:34:41.973Z,2.10
2022-08-11T07:35:41.045Z,2.10
2022-08-11T07:36:40.941Z,2.20
2022-08-11T07:37:40.970Z,2.20
2022-08-11T07:38:40.931Z,2.30
2022-08-11T07:39:40.992Z,2.30
2022-08-11T07:40:40.935Z,2.60
2022-08-11T07:41:40.945Z,2.30
2022-08-11T07:42:40.878Z,2.30
2022-08-11T07:43:40.869Z,2.40
2022-08-11T07:44:40.997Z,2.30
2022-08-11T07:45:41.000Z,2.20
2022-08-11T07:46:40.876Z,1.90
2022-08-11T07:47:40.838Z,2.00
2022-08-11T07:48:40.797Z,2.20
2022-08-11T07:49:40.789Z,2.30
2022-08-11T07:50:40.778Z,2.10
2022-08-11T07:51:40.779Z,2.20
2022-08-11T07:52:40.949Z,2.30
2022-08-11T07:53:57.751Z,2.20
2022-08-11T07:54:41.727Z,2.60
2022-08-11T07:55:51.018Z,2.10
2022-08-11T07:56:55.106Z,2.80
2022-08-11T07:57:57.040Z,2.20
2022-08-11T07:58:45.665Z,2.20
2022-08-11T08:00:00.654Z,2.40
2022-08-11T08:00:41.658Z,2.20
2022-08-11T08:01:40.775Z,2.50
2022-08-11T08:02:40.654Z,2.30
2022-08-11T08:03:53.661Z,2.30
2022-08-11T08:04:45.400Z,3.10
2022-08-11T08:05:41.695Z,2.20
2022-08-11T08:06:40.565Z,2.70
2022-08-11T08:07:40.586Z,2.20
2022-08-11T08:08:40.545Z,2.10
2022-08-11T08:09:40.630Z,2.40
2022-08-11T08:10:40.763Z,2.50
2022-08-11T08:11:40.524Z,2.50
2022-08-11T08:12:40.539Z,2.30
2022-08-11T08:13:40.702Z,2.50
2022-08-11T08:14:40.540Z,2.20
2022-08-11T08:15:40.453Z,2.10
2022-08-11T08:16:40.471Z,2.40
2022-08-11T08:17:40.502Z,2.40
2022-08-11T08:18:40.433Z,2.20
2022-08-11T08:19:40.443Z,2.20
2022-08-11T08:20:40.407Z,2.30
2022-08-11T08:21:40.402Z,2.40
2022-08-11T08:22:45.113Z,2.10
2022-08-11T08:23:41.382Z,2.30
2022-08-11T08:24:40.391Z,2.30
2022-08-11T08:25:40.334Z,2.40
2022-08-11T08:26:40.341Z,2.40
2022-08-11T08:27:40.342Z,2.30
2022-08-11T08:28:40.290Z,2.20
2022-08-11T08:29:40.368Z,2.50
2022-08-11T08:30:40.261Z,2.20
2022-08-11T08:31:40.254Z,2.10
2022-08-11T08:32:40.361Z,2.50
2022-08-11T08:33:40.230Z,2.10
2022-08-11T08:34:40.226Z,2.20
2022-08-11T08:35:55.926Z,2.20
2022-08-11T08:36:41.321Z,2.50
2022-08-11T08:37:45.848Z,2.20
2022-08-11T08:38:41.169Z,2.30
2022-08-11T08:39:40.216Z,2.20
2022-08-11T08:40:40.148Z,2.40
2022-08-11T08:41:40.182Z,2.30
2022-08-11T08:42:44.875Z,2.10
2022-08-11T08:43:49.242Z,2.20
2022-08-11T08:44:41.842Z,2.30
2022-08-11T08:45:40.088Z,2.00
2022-08-11T08:46:40.132Z,2.30
2022-08-11T08:47:42.233Z,2.10
2022-08-11T08:48:40.056Z,2.60
2022-08-11T08:49:40.411Z,2.30
2022-08-11T08:50:40.042Z,2.00
2022-08-11T08:52:00.930Z,2.20
2022-08-11T08:52:43.676Z,2.30
2022-08-11T08:53:39.986Z,2.40
2022-08-11T08:54:40.965Z,2.30
2022-08-11T08:55:44.980Z,2.40
2022-08-11T08:56:40.949Z,2.10
2022-08-11T08:57:40.341Z,2.60
2022-08-11T08:58:39.916Z,2.20
2022-08-11T08:59:49.333Z,2.20
2022-08-11T09:00:40.952Z,2.10
2022-08-11T09:01:39.952Z,2.60
2022-08-11T09:02:39.883Z,2.30
2022-08-11T09:04:07.077Z,2.00
2022-08-11T09:04:40.960Z,1.90
2022-08-11T09:05:39.843Z,2.30
2022-08-11T09:06:39.816Z,2.10
2022-08-11T09:07:40.708Z,1.90
2022-08-11T09:08:39.818Z,2.00
2022-08-11T09:09:39.773Z,2.10
2022-08-11T09:10:39.772Z,2.20
2022-08-11T09:11:39.760Z,1.90
2022-08-11T09:12:39.751Z,2.00
2022-08-11T09:13:40.538Z,2.10
2022-08-11T09:14:39.821Z,2.00
2022-08-11T09:15:39.710Z,2.20
2022-08-11T09:16:39.714Z,2.00
2022-08-11T09:17:39.908Z,1.80
2022-08-11T09:18:39.703Z,1.90
2022-08-11T09:19:39.653Z,1.90
2022-08-11T09:20:39.803Z,2.00
2022-08-11T09:21:48.955Z,2.40
2022-08-11T09:22:40.722Z,2.00
2022-08-11T09:24:07.328Z,2.00
2022-08-11T09:24:40.589Z,1.90
2022-08-11T09:25:39.631Z,2.30
2022-08-11T09:26:39.840Z,2.00
2022-08-11T09:27:39.860Z,1.90
2022-08-11T09:28:40.538Z,1.80
2022-08-11T09:29:39.583Z,1.80
2022-08-11T09:30:39.587Z,2.00
2022-08-11T09:31:40.482Z,1.80
2022-08-11T09:32:39.489Z,1.90
2022-08-11T09:33:39.486Z,1.90
2022-08-11T09:34:39.488Z,2.00
2022-08-11T09:35:39.470Z,1.80
2022-08-11T09:36:39.437Z,2.10
2022-08-11T09:37:55.294Z,1.90
2022-08-11T09:38:40.471Z,2.00
2022-08-11T09:39:39.426Z,1.90
2022-08-11T09:40:39.412Z,1.70
2022-08-11T09:42:00.519Z,1.90
2022-08-11T09:42:40.447Z,2.20
2022-08-11T09:43:39.346Z,2.30
2022-08-11T09:44:39.344Z,2.00
2022-08-11T09:45:40.247Z,1.80
2022-08-11T09:46:39.325Z,2.00
2022-08-11T09:47:39.537Z,1.90
2022-08-11T09:48:39.331Z,1.70
2022-08-11T09:49:39.292Z,2.00
2022-08-11T09:50:39.263Z,1.70
2022-08-11T09:51:39.527Z,1.80
2022-08-11T09:52:45.000Z,2.10
2022-08-11T09:53:41.100Z,1.80
2022-08-11T09:54:39.272Z,1.80
2022-08-11T09:55:39.203Z,1.70
2022-08-11T09:56:39.192Z,1.60
2022-08-11T09:57:39.426Z,1.60
2022-08-11T09:58:42.678Z,2.10
2022-08-11T09:59:39.186Z,1.60
2022-08-11T10:00:39.193Z,1.60
2022-08-11T10:01:39.187Z,1.80
2022-08-11T10:02:39.144Z,1.70
2022-08-11T10:03:40.518Z,1.60
2022-08-11T10:04:39.095Z,1.50
2022-08-11T10:05:39.205Z,1.80
2022-08-11T10:06:39.104Z,1.70
2022-08-11T10:07:39.241Z,1.80
2022-08-11T10:08:39.153Z,1.60
2022-08-11T10:09:39.047Z,1.50
2022-08-11T10:10:39.067Z,1.70
2022-08-11T10:11:39.030Z,1.70
2022-08-11T10:12:39.061Z,1.70
2022-08-11T10:14:10.038Z,1.80
2022-08-11T10:14:44.435Z,1.70
2022-08-11T10:15:38.995Z,1.70
2022-08-11T10:16:39.035Z,1.50
2022-08-11T10:17:39.064Z,1.60
2022-08-11T10:18:39.060Z,1.60
2022-08-11T10:19:38.959Z,1.60
2022-08-11T10:20:38.878Z,2.00
2022-08-11T10:21:39.075Z,1.50
2022-08-11T10:22:38.858Z,1.50
2022-08-11T10:24:01.420Z,1.60
2022-08-11T10:24:40.016Z,1.60
2022-08-11T10:25:38.817Z,1.60
2022-08-11T10:26:38.827Z,1.60
2022-08-11T10:28:16.764Z,1.60
2022-08-11T10:29:02.137Z,1.30
2022-08-11T10:29:44.398Z,1.50
2022-08-11T10:30:42.331Z,1.50
2022-08-11T10:31:57.868Z,1.50
2022-08-11T10:32:57.619Z,1.60
2022-08-11T10:33:42.950Z,1.60
2022-08-11T10:34:39.716Z,1.60
2022-08-11T10:35:39.724Z,1.80
2022-08-11T10:36:38.695Z,1.30
2022-08-11T10:38:07.623Z,1.40
2022-08-11T10:38:39.703Z,1.40
2022-08-11T10:39:38.669Z,1.40
2022-08-11T10:40:38.656Z,1.50
2022-08-11T10:41:38.675Z,1.50
2022-08-11T10:42:57.369Z,1.60
2022-08-11T10:44:02.483Z,2.30
2022-08-11T10:44:39.660Z,1.50
2022-08-11T10:45:38.743Z,1.70
2022-08-11T10:46:38.594Z,1.40
2022-08-11T10:47:38.738Z,1.40
2022-08-11T10:48:39.542Z,1.60
2022-08-11T10:49:38.579Z,1.40
2022-08-11T10:50:38.580Z,1.30
2022-08-11T10:51:51.006Z,1.30
2022-08-11T10:52:39.897Z,1.60
2022-08-11T10:53:42.312Z,1.40
2022-08-11T10:54:38.471Z,1.50
2022-08-11T10:55:38.505Z,1.40
2022-08-11T10:56:38.441Z,1.50
2022-08-11T10:57:38.577Z,1.60
2022-08-11T10:58:38.441Z,1.60
2022-08-11T10:59:38.450Z,1.90
2022-08-11T11:00:38.382Z,1.60
2022-08-11T11:01:38.430Z,1.60
2022-08-11T11:02:38.360Z,1.50
2022-08-11T11:03:38.389Z,1.50
2022-08-11T11:04:38.379Z,1.30
2022-08-11T11:05:38.328Z,1.40
2022-08-11T11:06:39.309Z,1.80
2022-08-11T11:07:44.036Z,1.40
2022-08-11T11:08:39.408Z,1.30
2022-08-11T11:09:38.270Z,1.60
2022-08-11T11:10:38.288Z,1.40
2022-08-11T11:11:38.241Z,1.40
2022-08-11T11:12:38.466Z,1.70
2022-08-11T11:13:38.230Z,1.70
2022-08-11T11:14:46.167Z,1.60
2022-08-11T11:15:39.248Z,1.50
2022-08-11T11:16:38.190Z,1.50
2022-08-11T11:17:38.197Z,1.40
2022-08-11T11:18:38.206Z,1.30
2022-08-11T11:19:38.234Z,1.20
2022-08-11T11:20:40.746Z,1.60
2022-08-11T11:21:39.145Z,1.60
2022-08-11T11:22:38.298Z,1.40
2022-08-11T11:23:38.156Z,1.50
2022-08-11T11:24:38.095Z,1.50
2022-08-11T11:25:38.095Z,1.30
2022-08-11T11:26:38.113Z,1.60
2022-08-11T11:27:46.651Z,1.30
2022-08-11T11:28:39.064Z,1.40
2022-08-11T11:29:38.014Z,1.60
2022-08-11T11:30:38.037Z,1.40
2022-08-11T11:31:38.051Z,1.80
2022-08-11T11:32:38.172Z,1.50
2022-08-11T11:34:06.170Z,1.30
2022-08-11T11:34:52.876Z,1.40
2022-08-11T11:35:38.973Z,1.30
2022-08-11T11:36:37.975Z,1.50
2022-08-11T11:37:37.918Z,1.60
2022-08-11T11:38:37.926Z,1.40
2022-08-11T11:39:38.042Z,1.30
2022-08-11T11:40:37.945Z,1.50
2022-08-11T11:41:37.983Z,1.30
2022-08-11T11:42:38.053Z,1.20
2022-08-11T13:13:54.580Z,1.50
2022-08-11T13:14:15.220Z,1.60
2022-08-11T13:15:12.370Z,1.60
2022-08-11T13:16:12.689Z,1.70
2022-08-11T13:17:12.305Z,1.60
2022-08-11T13:18:12.334Z,1.60
2022-08-11T13:19:12.285Z,1.60
2022-08-11T13:20:12.265Z,1.70
2022-08-11T13:21:12.264Z,1.70
2022-08-11T13:22:13.263Z,1.70
2022-08-11T13:23:12.244Z,1.80
2022-08-11T13:24:12.376Z,1.60
2022-08-11T13:25:14.105Z,1.70
2022-08-11T13:26:12.183Z,1.60
2022-08-11T13:27:12.188Z,1.90
2022-08-11T13:28:12.184Z,1.70
2022-08-11T13:29:12.174Z,1.50
2022-08-11T13:30:12.141Z,1.70
2022-08-11T13:31:12.122Z,1.90
2022-08-11T13:32:12.172Z,1.70
2022-08-11T13:33:12.113Z,1.70
2022-08-11T13:34:12.095Z,1.80
2022-08-11T13:35:12.091Z,1.70
2022-08-11T13:36:12.072Z,1.70
2022-08-11T13:37:12.054Z,1.70
2022-08-11T13:38:18.949Z,1.60
2022-08-11T13:39:13.057Z,1.70
2022-08-11T13:40:12.029Z,1.70
2022-08-11T13:43:23.066Z,1.60
2022-08-11T13:44:25.797Z,1.60
2022-08-11T13:45:22.337Z,2.00
2022-08-11T13:46:23.006Z,1.70
2022-08-11T13:47:22.320Z,2.00
2022-08-11T13:48:22.286Z,1.80
2022-08-11T13:49:22.327Z,2.00
2022-08-11T13:50:22.285Z,1.80
2022-08-11T13:51:22.275Z,1.60
2022-08-11T13:52:23.418Z,2.30
2022-08-11T13:53:22.235Z,1.80
2022-08-11T13:54:22.248Z,2.20
2022-08-11T13:55:36.545Z,2.10
2022-08-11T13:56:23.185Z,2.60
2022-08-11T13:58:09.072Z,2.40
2022-08-11T13:58:40.308Z,2.10
2022-08-11T13:59:29.578Z,2.40
2022-08-11T14:00:23.545Z,2.30
2022-08-11T14:02:03.841Z,2.00
2022-08-11T14:02:29.529Z,2.00
2022-08-11T14:03:23.152Z,2.30
2022-08-11T14:04:29.704Z,2.10
2022-08-11T14:05:23.123Z,2.10
2022-08-11T14:06:22.092Z,2.40
2022-08-11T14:07:22.064Z,2.40
2022-08-11T14:08:37.637Z,2.60
2022-08-11T14:09:23.032Z,2.00
2022-08-11T14:10:22.024Z,2.20
2022-08-11T14:12:23.022Z,2.80
2022-08-11T14:12:24.584Z,2.20
2022-08-11T14:13:21.993Z,1.70
2022-08-11T14:14:21.952Z,1.80
2022-08-11T14:15:22.214Z,2.00
2022-08-11T14:16:21.952Z,2.00
2022-08-11T14:17:36.025Z,2.00
2022-08-11T14:18:22.911Z,1.60
2022-08-11T14:19:22.120Z,1.80
2022-08-11T14:20:39.106Z,1.70
2022-08-11T14:21:22.937Z,1.70
2022-08-11T14:22:21.901Z,1.70
2022-08-11T14:23:21.978Z,1.60
2022-08-11T14:24:21.830Z,2.00
2022-08-11T14:25:21.860Z,1.80
2022-08-11T14:26:22.938Z,1.70
2022-08-11T14:28:30.118Z,1.50
2022-08-11T14:28:32.697Z,1.50
2022-08-11T14:29:22.804Z,1.90
2022-08-11T14:30:21.770Z,1.70
2022-08-11T14:31:21.817Z,2.00
2022-08-11T14:32:21.879Z,1.60
2022-08-11T14:33:21.739Z,1.90
2022-08-11T14:34:22.402Z,1.80
2022-08-11T14:35:21.719Z,1.70
2022-08-11T14:36:21.758Z,1.60
2022-08-11T14:37:21.678Z,1.50
2022-08-11T14:38:21.711Z,1.70
2022-08-11T14:39:21.695Z,1.60
2022-08-11T14:40:21.758Z,1.80
2022-08-11T14:41:21.657Z,1.80
2022-08-11T14:42:21.792Z,1.80
2022-08-11T14:43:21.757Z,1.70
2022-08-11T14:44:22.597Z,1.70
2022-08-11T14:45:21.733Z,1.80
2022-08-11T14:46:21.629Z,1.80
2022-08-11T14:47:23.034Z,1.60
2022-08-11T14:48:21.586Z,1.60
2022-08-11T14:49:21.547Z,1.80
2022-08-11T14:50:21.564Z,1.70